Cotopaxi International Airport
SELT : now visible

Airfield :











YOU CAN JOIN US ON...

 
LOGIN :

Register | Disclaimer

   EN    FR    IT 

 









Legend :    VFR   Marginal VFR   IFR   Intensive IFR   Very Intensive IFR
Visi :
Ceiling :
>= 8 km
>= 3000ft
5 to 8 km
1000 to 3000 ft
1500m to 5 km
500 to 1000 ft
800 to 1500m
200 to 500 ft
< 800m
< 200 ft
Symbols :   Thunderstorms  Fog  Heavy snow  Heavy precipitations  Wind > 20 kt






- Airport Elevation : 9205 ft
- IATA code : LTX


SELT - Cotopaxi International

CURRENT METAR :
  • 100900Z 18004KT 9999 FEW010 BKN030 BKN100 10/09 Q1027

EXPIRED METARs :
  • 100800Z 19004KT 9999 FEW010 BKN030 BKN100 10/09 Q1026

TAF SELT
Valid from the 10 at 06:00 until the 11 at 06:00 UTC


100430Z 1006/1106 VRB03KT 9999 FEW010 BKN030
FM101400 16005KT 9999 SCT033 SCT100
TEMPO 1018/1020 18014KT
BECMG 1101/1102 20005KT FEW010 SCT033 TX20/1019Z TN09/1011Z



MET'MAP, your aeronautical weather chart ! - Copyright ORBIFLY December 2007 - Disclaimer

ORBIFLY MET'MAP TEAM :

Programming & Development : Alexandra Zaïnal
Concept & original design : Baudouin d'Aumeries
Assistance for programming : Marc-Olivier Méhu
Technical & hardware support : Manuel Goepfert

Contact : metmap@orbifly.com




SOURCES & CREDITS :

   NOAA       Earth
Advisory